Time;durP1;ratioP1;P1;durP2;ratioP2;P2;SDS_P1;SDS_P2;PMS_P1;PMS_P2;Temp;Humidity;BMP_temperature;BMP_pressure;BME280_temperature;BME280_humidity;BME280_pressure;Samples;Min_cycle;Max_cycle;Signal;HPM_P1;HPM_P2
2021/04/29 00:16:57;;;;;;;0.87;0.87;;;13.10;99.90;;;;;;4972965;28;20494;-52
2021/04/29 00:19:25;;;;;;;1.17;1.00;;;13.20;99.90;;;;;;5029176;23;20874;-54
2021/04/29 00:21:51;;;;;;;1.40;1.00;;;13.20;99.90;;;;;;5011079;28;20938;-54
2021/04/29 00:24:21;;;;;;;1.27;1.10;;;13.30;99.90;;;;;;5010384;28;20445;-54
2021/04/29 00:26:47;;;;;;;1.23;1.13;;;13.50;99.90;;;;;;5012033;28;20480;-54
2021/04/29 00:29:14;;;;;;;1.80;1.20;;;13.60;99.90;;;;;;5009599;28;20472;-54
2021/04/29 00:31:40;;;;;;;1.30;1.20;;;13.60;99.90;;;;;;5011635;28;20828;-54
2021/04/29 00:34:07;;;;;;;1.07;1.07;;;13.60;99.90;;;;;;5011690;28;21067;-54
2021/04/29 00:36:34;;;;;;;1.03;0.97;;;13.50;99.90;;;;;;5011254;28;20465;-54
2021/04/29 00:39:00;;;;;;;1.63;1.20;;;13.70;99.90;;;;;;5012890;28;20855;-54
2021/04/29 00:41:27;;;;;;;1.20;1.10;;;13.70;99.90;;;;;;5012333;28;20461;-54
2021/04/29 00:43:53;;;;;;;1.10;1.00;;;13.70;99.90;;;;;;5011809;28;20454;-54
2021/04/29 00:46:21;;;;;;;1.10;1.00;;;13.70;99.90;;;;;;5020541;28;20502;-54
2021/04/29 00:48:47;;;;;;;1.17;1.07;;;13.60;99.90;;;;;;5031416;28;20481;-54
2021/04/29 00:51:17;;;;;;;1.40;1.30;;;13.20;99.90;;;;;;5029626;28;20475;-54
2021/04/29 00:53:45;;;;;;;1.20;1.00;;;13.20;99.90;;;;;;5011968;28;20480;-54
2021/04/29 00:56:12;;;;;;;1.20;1.10;;;13.20;99.90;;;;;;5016068;28;20453;-54
2021/04/29 00:58:39;;;;;;;0.97;0.90;;;13.40;99.90;;;;;;5011826;28;20496;-54
2021/04/29 01:01:07;;;;;;;2.77;1.00;;;13.50;99.90;;;;;;5011741;28;20453;-54
2021/04/29 01:03:38;;;;;;;1.20;1.10;;;13.40;99.90;;;;;;5011384;28;20971;-54
2021/04/29 01:06:09;;;;;;;1.17;1.00;;;13.30;99.90;;;;;;5010594;28;20453;-54
2021/04/29 01:08:45;;;;;;;1.13;1.07;;;13.50;99.90;;;;;;5009621;28;20861;-55
2021/04/29 01:11:16;;;;;;;1.37;1.27;;;13.60;99.90;;;;;;5009800;28;20457;-54
2021/04/29 01:13:48;;;;;;;1.27;1.17;;;13.40;99.90;;;;;;5009250;28;20480;-54
2021/04/29 01:16:17;;;;;;;0.90;0.90;;;13.50;99.90;;;;;;5009681;28;20462;-54
2021/04/29 01:18:44;;;;;;;1.20;1.00;;;13.50;99.90;;;;;;5009194;28;21012;-55
2021/04/29 01:21:14;;;;;;;1.43;1.20;;;13.50;99.90;;;;;;5009646;28;20461;-55
2021/04/29 01:24:02;;;;;;;1.30;1.10;;;13.50;99.90;;;;;;5010797;28;20456;-54
2021/04/29 01:26:51;;;;;;;1.20;1.10;;;13.60;99.90;;;;;;5011324;28;20991;-54
2021/04/29 01:29:20;;;;;;;1.10;0.90;;;13.60;99.90;;;;;;5011665;28;20470;-55
2021/04/29 01:31:48;;;;;;;1.20;0.90;;;13.50;99.90;;;;;;5011065;28;20492;-55
2021/04/29 01:34:18;;;;;;;1.33;1.23;;;13.50;99.90;;;;;;5021128;28;20866;-55
2021/04/29 01:36:45;;;;;;;1.50;1.40;;;13.50;99.90;;;;;;5018190;28;21012;-55
2021/04/29 01:39:15;;;;;;;1.23;1.13;;;13.40;99.90;;;;;;5031350;28;20583;-54
2021/04/29 01:41:45;;;;;;;1.50;1.40;;;13.50;99.90;;;;;;5026214;28;20450;-54
2021/04/29 01:44:13;;;;;;;1.87;1.40;;;13.50;99.90;;;;;;5027344;28;20449;-55
2021/04/29 01:46:40;;;;;;;1.40;1.30;;;13.50;99.90;;;;;;5031021;28;20834;-55
2021/04/29 01:49:09;;;;;;;1.60;1.50;;;13.50;99.90;;;;;;5030911;28;20475;-55
2021/04/29 01:51:38;;;;;;;1.70;1.60;;;13.60;99.90;;;;;;5022933;28;20442;-54
2021/04/29 01:54:06;;;;;;;2.03;1.83;;;13.60;99.90;;;;;;5011210;28;20477;-55
2021/04/29 01:56:33;;;;;;;1.90;1.70;;;13.60;99.90;;;;;;5011381;28;20456;-55
2021/04/29 01:58:59;;;;;;;2.53;1.77;;;13.60;99.90;;;;;;5011501;28;20469;-54
2021/04/29 02:01:28;;;;;;;3.50;2.20;;;13.60;99.90;;;;;;5007947;28;20458;-55
2021/04/29 02:03:55;;;;;;;1.70;1.60;;;13.50;99.90;;;;;;5011306;28;20714;-54
2021/04/29 02:06:23;;;;;;;2.00;1.87;;;13.50;99.90;;;;;;5010560;28;20453;-55
2021/04/29 02:08:49;;;;;;;2.20;1.80;;;13.50;99.90;;;;;;5011376;28;20480;-55
2021/04/29 02:11:16;;;;;;;2.50;2.00;;;13.50;99.90;;;;;;5014888;28;20499;-55
2021/04/29 02:13:46;;;;;;;5.47;2.30;;;13.50;99.90;;;;;;5011285;28;20442;-55
2021/04/29 02:16:15;;;;;;;3.00;2.10;;;13.40;99.90;;;;;;5010855;28;20507;-54
2021/04/29 02:18:46;;;;;;;1.70;1.60;;;13.50;99.90;;;;;;5014470;28;20472;-54
2021/04/29 02:21:16;;;;;;;2.43;2.03;;;13.40;99.90;;;;;;5013531;28;20445;-54
2021/04/29 02:23:45;;;;;;;2.30;2.00;;;13.40;99.90;;;;;;4991503;28;20442;-54
2021/04/29 02:26:12;;;;;;;3.93;1.80;;;13.30;99.90;;;;;;4993564;28;20454;-55
2021/04/29 02:28:40;;;;;;;2.20;2.00;;;13.40;99.90;;;;;;5000026;28;20880;-54
2021/04/29 02:31:07;;;;;;;2.07;1.87;;;13.30;99.90;;;;;;5011138;28;20481;-55
2021/04/29 02:33:34;;;;;;;2.30;2.10;;;13.20;99.90;;;;;;5010880;28;20446;-55
2021/04/29 02:36:02;;;;;;;5.40;1.93;;;13.20;99.90;;;;;;5010980;28;20485;-55
2021/04/29 02:38:28;;;;;;;2.70;1.87;;;13.40;99.90;;;;;;5015497;28;20477;-55
2021/04/29 02:40:57;;;;;;;1.77;1.67;;;13.30;99.90;;;;;;5025918;28;20450;-55
2021/04/29 02:43:24;;;;;;;1.57;1.47;;;13.40;99.90;;;;;;5023810;28;20452;-54
2021/04/29 02:45:51;;;;;;;2.27;1.97;;;13.50;99.90;;;;;;5034321;28;20522;-54
2021/04/29 02:48:19;;;;;;;1.80;1.70;;;13.50;99.90;;;;;;5014775;28;20465;-54
2021/04/29 02:50:46;;;;;;;1.60;1.50;;;13.40;99.90;;;;;;5014537;28;20457;-55
2021/04/29 02:53:15;;;;;;;1.87;1.50;;;13.20;99.90;;;;;;5013491;28;20453;-54
2021/04/29 02:55:42;;;;;;;1.30;1.20;;;13.20;99.90;;;;;;5013698;28;20477;-55
2021/04/29 02:58:10;;;;;;;1.70;1.60;;;13.40;99.90;;;;;;5015264;28;20500;-55
2021/04/29 03:00:38;;;;;;;1.73;1.40;;;13.40;99.90;;;;;;5014229;28;20461;-54
2021/04/29 03:03:07;;;;;;;1.77;1.47;;;13.30;99.90;;;;;;5014587;28;20460;-55
2021/04/29 03:05:34;;;;;;;1.50;1.40;;;13.20;99.90;;;;;;5014059;28;20832;-54
2021/04/29 03:08:00;;;;;;;1.67;1.50;;;13.30;99.90;;;;;;5014679;28;20523;-54
2021/04/29 03:10:28;;;;;;;1.60;1.50;;;13.50;99.90;;;;;;5027423;28;20452;-54
2021/04/29 03:12:54;;;;;;;1.70;1.60;;;13.50;99.90;;;;;;5013780;28;20458;-55
2021/04/29 03:15:21;;;;;;;1.60;1.50;;;13.50;99.90;;;;;;4998985;28;20509;-54
2021/04/29 03:17:48;;;;;;;1.73;1.63;;;13.60;99.90;;;;;;5014049;28;20489;-54
2021/04/29 03:20:14;;;;;;;1.50;1.40;;;13.60;99.90;;;;;;5014112;28;20453;-54
2021/04/29 03:22:41;;;;;;;1.90;1.70;;;13.50;99.90;;;;;;5013900;28;20852;-54
2021/04/29 03:25:08;;;;;;;4.97;1.80;;;13.50;99.90;;;;;;5014078;28;20442;-54
2021/04/29 03:27:35;;;;;;;5.47;1.83;;;13.10;99.90;;;;;;5033757;28;20456;-54
2021/04/29 03:30:02;;;;;;;2.70;2.27;;;12.90;99.90;;;;;;5033366;28;20449;-54
2021/04/29 03:32:28;;;;;;;12.93;1.90;;;12.90;99.90;;;;;;5013715;28;20508;-54
2021/04/29 03:34:55;;;;;;;37.77;4.07;;;12.50;99.90;;;;;;5013744;28;21020;-54
2021/04/29 03:37:22;;;;;;;3.10;2.20;;;12.40;99.90;;;;;;5013862;28;20456;-54
2021/04/29 03:39:49;;;;;;;3.70;2.00;;;12.20;99.90;;;;;;5008477;28;20478;-55
2021/04/29 03:42:17;;;;;;;2.10;1.90;;;12.20;99.90;;;;;;5010953;28;21035;-54
2021/04/29 03:44:44;;;;;;;3.20;2.03;;;12.10;99.90;;;;;;5013132;28;20457;-54
2021/04/29 03:47:11;;;;;;;5.90;2.07;;;12.10;99.90;;;;;;5013528;28;20449;-54
2021/04/29 03:49:37;;;;;;;2.90;2.60;;;12.20;99.90;;;;;;5012732;28;20496;-54
2021/04/29 03:52:04;;;;;;;3.20;1.90;;;12.20;99.90;;;;;;5012726;28;20445;-54
2021/04/29 03:54:31;;;;;;;2.43;2.17;;;12.10;99.90;;;;;;5012590;28;20489;-54
2021/04/29 03:56:57;;;;;;;2.47;2.17;;;12.10;99.90;;;;;;5013352;28;20460;-54
2021/04/29 03:59:26;;;;;;;2.50;2.30;;;12.00;99.90;;;;;;5012668;28;20531;-56
2021/04/29 04:01:54;;;;;;;3.20;2.50;;;12.00;99.90;;;;;;5012809;28;20465;-54
2021/04/29 04:04:20;;;;;;;2.83;2.53;;;12.00;99.90;;;;;;5012993;28;20947;-54
2021/04/29 04:06:47;;;;;;;6.97;2.83;;;12.10;99.90;;;;;;5026913;28;20453;-53
2021/04/29 04:09:13;;;;;;;4.03;3.10;;;12.20;99.90;;;;;;5032817;28;20522;-55
2021/04/29 04:11:40;;;;;;;6.50;2.57;;;12.10;99.90;;;;;;5016686;28;20453;-55
2021/04/29 04:14:06;;;;;;;4.50;3.33;;;12.20;99.90;;;;;;5010790;28;20450;-55
2021/04/29 04:16:33;;;;;;;23.77;3.50;;;12.20;99.90;;;;;;5020206;28;20471;-55
2021/04/29 04:19:00;;;;;;;6.00;2.30;;;12.20;99.90;;;;;;5022885;28;20997;-54
2021/04/29 04:21:27;;;;;;;3.40;2.00;;;12.30;99.90;;;;;;5020063;28;20520;-54
2021/04/29 04:23:55;;;;;;;3.40;2.30;;;12.40;99.90;;;;;;5012687;28;20516;-54
2021/04/29 04:26:22;;;;;;;5.00;3.50;;;12.50;99.90;;;;;;5012524;28;20446;-54
2021/04/29 04:28:48;;;;;;;4.07;3.47;;;12.30;99.90;;;;;;5012291;28;20489;-55
2021/04/29 04:31:15;;;;;;;4.53;3.20;;;12.30;99.90;;;;;;5012304;28;20458;-54
2021/04/29 04:33:41;;;;;;;4.30;3.23;;;12.50;99.90;;;;;;5011920;28;20461;-54
2021/04/29 04:36:09;;;;;;;4.67;2.70;;;12.70;99.90;;;;;;5012429;28;20488;-55
2021/04/29 04:38:36;;;;;;;2.80;2.60;;;12.80;99.90;;;;;;5012563;28;20509;-55
2021/04/29 04:41:04;;;;;;;2.40;2.20;;;12.60;99.90;;;;;;5012316;28;20467;-56
2021/04/29 04:43:30;;;;;;;3.63;2.40;;;12.60;99.90;;;;;;5011778;28;20461;-56
2021/04/29 04:45:57;;;;;;;2.50;2.30;;;12.50;99.90;;;;;;5017851;28;20448;-55
2021/04/29 04:48:24;;;;;;;3.90;2.80;;;12.50;99.90;;;;;;4998994;28;20480;-55
2021/04/29 04:50:50;;;;;;;5.33;3.00;;;12.50;99.90;;;;;;5011841;28;20457;-55
2021/04/29 04:53:19;;;;;;;4.80;3.40;;;12.50;99.90;;;;;;5012083;28;20457;-55
2021/04/29 04:55:47;;;;;;;4.40;3.07;;;12.50;99.90;;;;;;5011855;28;20983;-54
2021/04/29 04:58:16;;;;;;;5.50;3.40;;;12.60;99.90;;;;;;5012049;28;20469;-53
2021/04/29 05:00:45;;;;;;;3.93;3.50;;;12.60;99.90;;;;;;5011760;28;20456;-55
2021/04/29 05:03:12;;;;;;;4.50;3.23;;;12.70;99.90;;;;;;5011489;28;20454;-53
2021/04/29 05:05:40;;;;;;;5.83;3.70;;;12.70;99.90;;;;;;5011744;28;20446;-55
2021/04/29 05:08:07;;;;;;;5.67;3.67;;;12.50;99.90;;;;;;5011956;28;20469;-55
2021/04/29 05:10:37;;;;;;;4.43;3.60;;;12.50;99.90;;;;;;5011877;28;20460;-55
2021/04/29 05:13:04;;;;;;;4.30;3.80;;;12.60;99.90;;;;;;5011518;28;20515;-55
2021/04/29 05:15:31;;;;;;;4.60;3.50;;;12.60;99.90;;;;;;5011504;28;20550;-55
2021/04/29 05:17:58;;;;;;;6.23;4.00;;;12.40;99.90;;;;;;5011589;28;20481;-55
2021/04/29 05:20:25;;;;;;;6.00;3.30;;;12.50;99.90;;;;;;5011859;28;20504;-55
2021/04/29 05:22:51;;;;;;;5.17;3.60;;;12.40;99.90;;;;;;5011617;28;20449;-55
2021/04/29 05:25:18;;;;;;;4.57;3.47;;;12.50;99.90;;;;;;5011395;28;20450;-55
2021/04/29 05:27:45;;;;;;;8.57;3.83;;;12.50;99.90;;;;;;5011359;28;20477;-55
2021/04/29 05:30:12;;;;;;;8.70;3.43;;;12.30;99.90;;;;;;5016285;28;20458;-55
2021/04/29 05:32:39;;;;;;;4.03;3.50;;;12.40;99.90;;;;;;5011588;28;20449;-55
2021/04/29 05:35:06;;;;;;;4.90;3.20;;;12.60;99.90;;;;;;5013554;28;20588;-55
2021/04/29 05:37:33;;;;;;;4.47;3.40;;;12.70;99.90;;;;;;5013174;28;20457;-55
2021/04/29 05:39:59;;;;;;;5.63;3.63;;;12.60;99.90;;;;;;5011006;28;20458;-55
2021/04/29 05:42:26;;;;;;;5.60;3.80;;;12.50;99.90;;;;;;5011311;28;20453;-55
2021/04/29 05:44:53;;;;;;;10.67;3.30;;;12.60;99.90;;;;;;5011510;28;20445;-55
2021/04/29 05:47:20;;;;;;;9.43;3.77;;;12.50;99.90;;;;;;5011765;28;20456;-55
2021/04/29 05:49:46;;;;;;;5.13;3.70;;;12.60;99.90;;;;;;5011380;28;20504;-55
2021/04/29 05:52:13;;;;;;;3.90;3.43;;;12.50;99.90;;;;;;5011388;28;20485;-55
2021/04/29 05:54:39;;;;;;;5.20;3.40;;;12.60;99.90;;;;;;5010883;28;20477;-55
2021/04/29 05:57:06;;;;;;;6.00;3.70;;;12.60;99.90;;;;;;5011187;28;20499;-55
2021/04/29 05:59:33;;;;;;;5.63;3.50;;;12.60;99.90;;;;;;5011279;28;20473;-55
2021/04/29 06:02:00;;;;;;;5.10;3.73;;;12.50;99.90;;;;;;5011220;28;20449;-55
2021/04/29 06:04:28;;;;;;;7.80;3.50;;;12.50;99.90;;;;;;5011300;28;20441;-55
2021/04/29 06:06:55;;;;;;;7.60;3.03;;;12.50;99.90;;;;;;5009639;28;20456;-55
2021/04/29 06:09:21;;;;;;;5.43;4.00;;;12.40;99.90;;;;;;5011054;28;20477;-55
2021/04/29 06:11:48;;;;;;;4.10;3.30;;;12.40;99.90;;;;;;5009855;28;20445;-55
2021/04/29 06:14:14;;;;;;;3.60;2.97;;;12.50;99.90;;;;;;5011800;28;20445;-55
2021/04/29 06:16:41;;;;;;;4.23;3.07;;;12.50;99.90;;;;;;5014840;28;20457;-55
2021/04/29 06:19:08;;;;;;;8.40;3.20;;;12.40;99.90;;;;;;5048617;23;20558;-52
2021/04/29 06:21:35;;;;;;;3.90;3.23;;;12.50;99.90;;;;;;5035106;28;20506;-51
2021/04/29 06:24:02;;;;;;;9.03;3.50;;;12.60;99.90;;;;;;5035047;28;20444;-51
2021/04/29 06:26:30;;;;;;;6.57;3.90;;;12.70;99.90;;;;;;5031922;28;20487;-51
2021/04/29 06:28:56;;;;;;;15.80;4.33;;;12.80;99.90;;;;;;5024495;28;20226;-51
2021/04/29 06:31:23;;;;;;;7.17;4.40;;;12.80;99.90;;;;;;5014973;28;20472;-51
2021/04/29 06:33:49;;;;;;;7.17;4.53;;;12.80;99.90;;;;;;5014909;28;20940;-51
2021/04/29 06:36:17;;;;;;;4.33;3.90;;;12.50;99.90;;;;;;5017787;28;20481;-49
2021/04/29 06:38:43;;;;;;;6.60;4.30;;;12.40;99.90;;;;;;5014495;28;20535;-52
2021/04/29 06:41:10;;;;;;;14.30;6.53;;;12.40;99.90;;;;;;5010831;28;20970;-51
2021/04/29 06:43:36;;;;;;;6.53;4.50;;;12.50;99.90;;;;;;5013150;28;20446;-52
2021/04/29 06:46:03;;;;;;;5.10;4.30;;;12.50;99.90;;;;;;5014566;28;20488;-51
2021/04/29 06:48:30;;;;;;;8.77;4.70;;;12.60;99.90;;;;;;5013666;28;20466;-52
2021/04/29 06:50:56;;;;;;;10.20;4.90;;;12.60;99.90;;;;;;5020204;28;20449;-51
2021/04/29 06:53:24;;;;;;;6.80;3.90;;;12.50;99.90;;;;;;5015988;28;20453;-51
2021/04/29 06:55:51;;;;;;;6.83;4.47;;;12.70;99.90;;;;;;5020654;28;20487;-50
2021/04/29 06:58:17;;;;;;;11.40;4.13;;;12.70;99.90;;;;;;5028858;28;20907;-52
2021/04/29 07:00:44;;;;;;;7.70;4.23;;;12.70;99.90;;;;;;5014233;28;20511;-52
2021/04/29 07:03:11;;;;;;;4.90;3.80;;;12.80;99.90;;;;;;5014459;28;20458;-52
2021/04/29 07:05:37;;;;;;;5.77;3.80;;;12.70;99.90;;;;;;5014256;28;20496;-51
2021/04/29 07:08:04;;;;;;;9.50;3.40;;;12.70;99.90;;;;;;5014000;28;20827;-51
2021/04/29 07:10:32;;;;;;;5.63;3.60;;;12.70;99.90;;;;;;5014168;28;20465;-52
2021/04/29 07:12:58;;;;;;;3.83;2.60;;;12.70;99.90;;;;;;5013928;28;20468;-50
2021/04/29 07:15:25;;;;;;;5.40;2.67;;;12.70;99.90;;;;;;5014133;28;20485;-51
2021/04/29 07:17:58;;;;;;;7.53;3.00;;;12.80;99.90;;;;;;5014119;28;20503;-48
2021/04/29 07:20:24;;;;;;;4.73;2.90;;;12.70;99.90;;;;;;5013979;28;20572;-50
2021/04/29 07:22:51;;;;;;;4.00;2.80;;;12.70;99.90;;;;;;5014377;28;20453;-49
2021/04/29 07:25:17;;;;;;;4.80;2.67;;;12.70;99.90;;;;;;5013715;28;20445;-50
2021/04/29 07:27:45;;;;;;;3.83;2.70;;;12.70;99.90;;;;;;5014203;28;20826;-50
2021/04/29 07:30:12;;;;;;;3.15;2.22;;;12.80;99.90;;;;;;5013399;28;20443;-49
2021/04/29 07:32:39;;;;;;;4.40;2.37;;;12.90;99.90;;;;;;5013951;28;20213;-50
2021/04/29 07:35:07;;;;;;;3.50;2.60;;;12.90;99.90;;;;;;5013598;28;20481;-50
2021/04/29 07:37:33;;;;;;;2.40;2.20;;;13.00;99.90;;;;;;5014178;28;20453;-49
2021/04/29 07:40:00;;;;;;;4.20;2.97;;;12.90;99.90;;;;;;5013608;28;20496;-50
2021/04/29 07:42:26;;;;;;;7.73;3.00;;;12.80;99.90;;;;;;5013790;28;20450;-48
2021/04/29 07:44:54;;;;;;;6.77;3.30;;;12.80;99.90;;;;;;5013684;28;20848;-50
2021/04/29 07:47:20;;;;;;;2.90;2.60;;;12.80;99.90;;;;;;5013741;28;20828;-50
2021/04/29 07:49:47;;;;;;;5.97;3.03;;;12.90;99.90;;;;;;5013241;28;20859;-50
2021/04/29 07:52:13;;;;;;;5.20;3.77;;;13.10;99.90;;;;;;5013864;28;20456;-50
2021/04/29 07:54:40;;;;;;;5.00;3.17;;;13.20;99.90;;;;;;5013248;28;20492;-50
2021/04/29 07:57:07;;;;;;;7.43;4.13;;;13.20;99.90;;;;;;5013520;28;20943;-50
2021/04/29 07:59:33;;;;;;;4.43;3.37;;;13.20;99.90;;;;;;5013151;28;20998;-50
2021/04/29 08:02:00;;;;;;;6.30;3.50;;;13.20;99.90;;;;;;5013491;28;20512;-49
2021/04/29 08:04:29;;;;;;;6.10;4.63;;;13.20;99.90;;;;;;5013611;28;20456;-50
2021/04/29 08:06:56;;;;;;;9.73;4.30;;;13.30;99.90;;;;;;5013434;28;20453;-51
2021/04/29 08:09:22;;;;;;;4.97;4.03;;;13.50;99.90;;;;;;5012590;28;20477;-50
2021/04/29 08:11:49;;;;;;;5.23;4.20;;;13.40;99.90;;;;;;5009288;28;20454;-51
2021/04/29 08:14:15;;;;;;;10.17;4.80;;;13.40;99.90;;;;;;5009921;28;20447;-50
2021/04/29 08:16:41;;;;;;;6.53;4.53;;;13.20;99.90;;;;;;5012501;28;20485;-50
2021/04/29 08:19:09;;;;;;;5.00;3.93;;;13.10;99.90;;;;;;5013594;28;20508;-49
2021/04/29 08:21:35;;;;;;;5.37;4.57;;;13.20;99.90;;;;;;5023749;28;20543;-50
2021/04/29 08:24:02;;;;;;;6.47;4.20;;;13.20;99.90;;;;;;5020795;28;20839;-50
2021/04/29 08:26:29;;;;;;;8.53;5.53;;;13.00;99.90;;;;;;5029746;28;20498;-50
2021/04/29 08:28:56;;;;;;;6.53;3.90;;;13.00;99.90;;;;;;5026669;28;21060;-50
2021/04/29 08:31:22;;;;;;;5.07;3.57;;;13.00;99.90;;;;;;5018182;28;20860;-51
2021/04/29 08:33:49;;;;;;;5.57;3.80;;;13.10;99.90;;;;;;5020018;28;20456;-50
2021/04/29 08:36:16;;;;;;;7.67;4.40;;;13.30;99.90;;;;;;5011596;28;20485;-51
2021/04/29 08:38:42;;;;;;;6.93;4.97;;;13.40;99.90;;;;;;5012299;28;20504;-50
2021/04/29 08:41:10;;;;;;;7.37;4.60;;;13.40;99.90;;;;;;5012614;28;20445;-50
2021/04/29 08:43:37;;;;;;;9.70;4.13;;;13.40;99.90;;;;;;5012343;28;20961;-50
2021/04/29 08:46:04;;;;;;;3.80;3.30;;;13.50;99.90;;;;;;5012213;28;20457;-51
2021/04/29 08:48:31;;;;;;;4.40;3.87;;;13.50;99.90;;;;;;5012292;28;20474;-50
2021/04/29 08:50:58;;;;;;;4.40;3.50;;;13.60;99.90;;;;;;5012318;28;20553;-51
2021/04/29 08:53:25;;;;;;;5.43;3.37;;;13.70;99.90;;;;;;5012305;28;20456;-50
2021/04/29 08:55:52;;;;;;;4.03;3.07;;;13.80;99.90;;;;;;5012031;28;20553;-51
2021/04/29 08:58:19;;;;;;;4.50;3.20;;;13.70;99.90;;;;;;5012009;28;21013;-50
2021/04/29 09:00:48;;;;;;;6.00;3.33;;;13.50;99.90;;;;;;5011672;28;20458;-50
2021/04/29 09:03:15;;;;;;;8.43;3.70;;;13.50;99.90;;;;;;5012080;28;20454;-50
2021/04/29 09:05:46;;;;;;;3.10;2.80;;;13.50;99.90;;;;;;5012096;28;20442;-49
2021/04/29 09:08:13;;;;;;;6.50;3.20;;;13.70;99.90;;;;;;5012199;28;20473;-50
2021/04/29 09:10:42;;;;;;;4.50;2.93;;;13.80;99.90;;;;;;5011681;28;20454;-51
2021/04/29 09:13:17;;;;;;;7.70;3.30;;;13.80;99.90;;;;;;5012268;28;20460;-51
2021/04/29 09:15:44;;;;;;;3.73;2.97;;;13.90;99.90;;;;;;5011883;28;20580;-51
2021/04/29 09:18:13;;;;;;;3.90;3.00;;;14.20;99.90;;;;;;5011935;28;20512;-51
2021/04/29 09:20:52;;;;;;;4.13;3.40;;;14.00;99.90;;;;;;5011821;28;20504;-51
2021/04/29 09:23:22;;;;;;;4.30;3.00;;;14.10;99.90;;;;;;5011668;28;20453;-51
2021/04/29 09:25:55;;;;;;;4.67;3.13;;;14.20;99.90;;;;;;5011781;28;20473;-51
2021/04/29 09:28:33;;;;;;;5.10;3.50;;;14.30;99.90;;;;;;4991870;28;21021;-50
2021/04/29 09:31:00;;;;;;;4.30;3.63;;;14.40;99.90;;;;;;5011811;28;20453;-51
2021/04/29 09:33:31;;;;;;;6.77;4.00;;;14.30;99.90;;;;;;5011803;28;20817;-51
2021/04/29 09:35:58;;;;;;;7.70;3.77;;;14.30;99.90;;;;;;5011360;28;20481;-52
2021/04/29 09:38:32;;;;;;;8.63;3.57;;;14.30;99.90;;;;;;5011804;28;20474;-51
2021/04/29 09:41:00;;;;;;;5.10;3.17;;;14.50;99.90;;;;;;5011490;28;20981;-51
2021/04/29 09:43:26;;;;;;;4.47;3.20;;;14.40;99.90;;;;;;5011779;28;20500;-50
2021/04/29 09:45:58;;;;;;;5.27;3.50;;;14.30;99.90;;;;;;5011497;28;20527;-50
2021/04/29 09:48:34;;;;;;;4.07;3.13;;;14.40;99.90;;;;;;5013655;28;20469;-51
2021/04/29 09:51:01;;;;;;;5.77;3.73;;;14.50;99.90;;;;;;5015660;28;20468;-51
2021/04/29 09:53:39;;;;;;;5.13;3.53;;;14.60;99.90;;;;;;5015638;28;20939;-51
2021/04/29 09:56:12;;;;;;;4.70;3.20;;;14.60;99.90;;;;;;5015274;28;20946;-51
2021/04/29 09:58:44;;;;;;;7.13;3.40;;;14.80;99.90;;;;;;5015243;28;20986;-52
2021/04/29 10:01:12;;;;;;;4.70;3.83;;;15.10;99.90;;;;;;4996156;28;20489;-50
2021/04/29 10:03:40;;;;;;;5.80;3.40;;;15.20;99.90;;;;;;5003274;28;20453;-50
2021/04/29 10:06:06;;;;;;;5.77;3.90;;;15.50;99.90;;;;;;5015259;28;20449;-50
2021/04/29 10:08:35;;;;;;;5.43;3.57;;;15.50;99.90;;;;;;5016318;28;20485;-50
2021/04/29 10:11:04;;;;;;;4.60;3.93;;;15.50;99.90;;;;;;5015081;28;20449;-52
2021/04/29 10:13:33;;;;;;;4.53;3.67;;;15.50;99.90;;;;;;5033860;28;20833;-50
2021/04/29 10:16:00;;;;;;;6.77;3.30;;;15.50;99.90;;;;;;5017153;28;20486;-51
2021/04/29 10:18:27;;;;;;;5.13;3.10;;;15.50;99.90;;;;;;5029288;28;20480;-51
2021/04/29 10:20:56;;;;;;;5.13;3.83;;;15.60;99.90;;;;;;5015412;28;20453;-51
2021/04/29 10:23:23;;;;;;;7.73;3.90;;;15.50;99.90;;;;;;5015180;28;20844;-50
2021/04/29 10:25:51;;;;;;;10.13;4.00;;;15.70;99.90;;;;;;5017986;28;20503;-51
2021/04/29 10:28:33;;;;;;;5.07;3.80;;;15.80;99.90;;;;;;5015225;28;20465;-51
2021/04/29 10:31:02;;;;;;;5.97;3.83;;;15.80;99.90;;;;;;5014950;28;20461;-52
2021/04/29 10:33:35;;;;;;;4.53;3.27;;;15.70;99.90;;;;;;5014836;28;20481;-51
2021/04/29 10:36:02;;;;;;;4.77;3.10;;;15.40;99.90;;;;;;5018193;28;20484;-51
2021/04/29 10:38:32;;;;;;;4.13;3.17;;;15.40;99.90;;;;;;5022842;28;21021;-51
2021/04/29 10:41:01;;;;;;;5.30;3.10;;;15.50;99.90;;;;;;5014766;28;21009;-51
2021/04/29 10:43:36;;;;;;;4.83;3.20;;;15.40;99.90;;;;;;5014353;28;20830;-52
2021/04/29 10:46:05;;;;;;;5.27;3.50;;;15.40;99.90;;;;;;5015117;28;20457;-51
2021/04/29 10:48:38;;;;;;;4.13;2.97;;;15.40;99.90;;;;;;5021661;28;20902;-52
2021/04/29 10:51:10;;;;;;;6.37;3.83;;;15.30;99.90;;;;;;5014728;28;20453;-50
2021/04/29 10:53:38;;;;;;;4.27;3.70;;;15.20;99.90;;;;;;5024583;28;20980;-51
2021/04/29 10:56:06;;;;;;;5.03;3.73;;;15.20;99.80;;;;;;5027278;28;20476;-51
2021/04/29 10:58:33;;;;;;;4.47;3.37;;;15.10;99.90;;;;;;5014582;28;20469;-48
2021/04/29 11:01:06;;;;;;;8.97;3.50;;;15.20;99.80;;;;;;5013455;28;20873;-50
2021/04/29 11:03:35;;;;;;;4.77;3.33;;;14.90;99.90;;;;;;5014574;28;20449;-50
2021/04/29 11:06:13;;;;;;;4.83;3.77;;;14.90;99.80;;;;;;5013099;28;20963;-50
2021/04/29 11:08:43;;;;;;;5.33;3.97;;;14.90;99.70;;;;;;5014198;28;20465;-50
2021/04/29 11:11:28;;;;;;;7.67;3.17;;;14.80;99.60;;;;;;5013647;28;20815;-50
2021/04/29 11:14:01;;;;;;;5.50;3.60;;;14.90;99.50;;;;;;5013598;28;21261;-50
2021/04/29 11:16:29;;;;;;;7.17;3.73;;;14.90;99.60;;;;;;5013898;28;20839;-51
2021/04/29 11:18:56;;;;;;;5.43;3.30;;;15.00;99.60;;;;;;5017667;28;20500;-52
2021/04/29 11:21:26;;;;;;;4.97;3.00;;;15.00;99.10;;;;;;5013923;28;20830;-52
2021/04/29 11:23:53;;;;;;;4.13;3.23;;;15.00;98.70;;;;;;5014095;28;20458;-52
2021/04/29 11:26:21;;;;;;;6.73;3.77;;;14.90;99.00;;;;;;5013302;28;21143;-52
2021/04/29 11:28:49;;;;;;;3.80;2.90;;;14.90;99.20;;;;;;5018708;28;20504;-52
2021/04/29 11:31:18;;;;;;;5.47;2.93;;;14.90;99.90;;;;;;5013833;28;20450;-53
2021/04/29 11:33:48;;;;;;;4.43;3.37;;;14.80;99.90;;;;;;5013961;28;20456;-52
2021/04/29 11:36:16;;;;;;;10.90;4.20;;;14.70;99.90;;;;;;5013495;28;20481;-49
2021/04/29 11:38:49;;;;;;;5.53;4.10;;;14.50;99.90;;;;;;5013553;28;20821;-50
2021/04/29 11:41:16;;;;;;;5.60;4.33;;;14.40;99.90;;;;;;5013703;28;20454;-49
2021/04/29 11:43:42;;;;;;;7.23;5.40;;;14.30;99.90;;;;;;5013602;28;20504;-51
2021/04/29 11:46:20;;;;;;;4.70;4.20;;;14.20;99.90;;;;;;5012941;28;20445;-51
2021/04/29 11:48:55;;;;;;;7.33;4.63;;;14.20;99.90;;;;;;5013435;28;20473;-51
2021/04/29 11:51:22;;;;;;;8.23;4.40;;;13.90;99.90;;;;;;5013285;28;20453;-50
2021/04/29 11:53:48;;;;;;;7.10;4.30;;;13.90;99.90;;;;;;5013507;28;20461;-51
2021/04/29 11:56:15;;;;;;;8.97;5.43;;;13.90;99.90;;;;;;5013027;28;20492;-51
2021/04/29 11:58:42;;;;;;;9.47;5.30;;;13.60;99.90;;;;;;5013335;28;20473;-50
2021/04/29 12:01:14;;;;;;;6.30;4.90;;;13.40;99.90;;;;;;5013315;28;20453;-51
2021/04/29 12:03:41;;;;;;;6.50;5.07;;;13.20;99.90;;;;;;5013201;28;20832;-49
2021/04/29 12:06:08;;;;;;;8.30;4.90;;;13.30;99.90;;;;;;5013208;28;20456;-50
2021/04/29 12:08:36;;;;;;;7.57;5.20;;;13.20;99.90;;;;;;5012582;28;20476;-48
2021/04/29 12:11:05;;;;;;;6.73;5.13;;;13.40;99.90;;;;;;5012352;28;20500;-50
2021/04/29 12:13:34;;;;;;;7.93;4.90;;;13.60;99.90;;;;;;5013104;28;20968;-50
2021/04/29 12:16:03;;;;;;;5.87;4.80;;;13.70;99.90;;;;;;5012830;28;20555;-49
2021/04/29 12:18:30;;;;;;;9.50;5.10;;;13.80;99.90;;;;;;5012389;28;20485;-50
2021/04/29 12:20:57;;;;;;;7.47;5.60;;;14.00;99.90;;;;;;5013177;28;20452;-50
2021/04/29 12:23:25;;;;;;;13.87;5.30;;;14.10;99.90;;;;;;5012977;28;20446;-50
2021/04/29 12:28:19;;;;;;;8.07;5.00;;;14.10;99.90;;;;;;5002553;28;20485;-54
2021/04/29 12:30:46;;;;;;;9.33;5.20;;;14.20;99.90;;;;;;4994517;28;20442;-55
2021/04/29 12:33:17;;;;;;;6.73;4.80;;;14.20;99.90;;;;;;4993305;28;20453;-54
2021/04/29 12:35:44;;;;;;;6.30;5.00;;;14.20;99.90;;;;;;4992857;28;20490;-54
2021/04/29 12:38:11;;;;;;;8.57;6.13;;;14.20;99.90;;;;;;4992832;28;20481;-54
2021/04/29 12:40:39;;;;;;;8.17;5.00;;;14.20;99.90;;;;;;4992921;28;20460;-54
2021/04/29 12:43:15;;;;;;;6.80;5.20;;;14.20;99.90;;;;;;4993230;28;20466;-53
2021/04/29 12:45:49;;;;;;;7.43;5.50;;;14.30;99.90;;;;;;4993140;28;20446;-54
2021/04/29 12:48:32;;;;;;;8.63;6.60;;;14.40;99.90;;;;;;4993525;28;20485;-53
2021/04/29 12:51:05;;;;;;;9.13;5.53;;;14.20;99.90;;;;;;4973552;28;20550;-53
2021/04/29 12:53:32;;;;;;;8.07;5.13;;;14.10;99.90;;;;;;4981644;28;20462;-54
2021/04/29 12:56:00;;;;;;;8.10;5.70;;;14.20;99.90;;;;;;4992160;28;20999;-55
2021/04/29 12:58:28;;;;;;;8.37;6.40;;;14.30;99.90;;;;;;4992764;28;20454;-54
2021/04/29 13:00:56;;;;;;;7.87;6.23;;;14.40;99.90;;;;;;4992821;28;20478;-54
2021/04/29 13:03:33;;;;;;;14.43;6.03;;;14.40;99.90;;;;;;4992595;28;20529;-54
2021/04/29 13:06:09;;;;;;;8.60;5.80;;;14.40;99.90;;;;;;4992366;28;20450;-54
2021/04/29 13:08:58;;;;;;;7.27;5.10;;;14.30;99.90;;;;;;4996778;28;20460;-53